createdAt,value
2023-03-22T00:01:33.348Z,6.97
2023-03-22T00:04:52.238Z,7.25
2023-03-22T00:11:18.948Z,6.60
2023-03-22T00:14:13.713Z,7.43
2023-03-22T00:17:18.353Z,6.25
2023-03-22T00:19:50.574Z,6.88
2023-03-22T00:22:42.126Z,6.82
2023-03-22T00:31:55.157Z,7.45
2023-03-22T00:42:31.720Z,6.75
2023-03-22T00:45:49.979Z,7.30
2023-03-22T00:48:39.443Z,6.78
2023-03-22T00:55:44.980Z,6.82
2023-03-22T00:59:03.753Z,7.20
2023-03-22T01:05:49.882Z,7.40
2023-03-22T01:15:46.261Z,7.57
2023-03-22T01:22:21.034Z,7.43
2023-03-22T01:25:41.512Z,6.32
2023-03-22T01:28:40.105Z,7.53
2023-03-22T01:31:55.163Z,8.25
2023-03-22T01:35:24.749Z,7.82
2023-03-22T01:38:37.425Z,7.80
2023-03-22T01:45:02.047Z,7.20
2023-03-22T01:55:07.699Z,6.68
2023-03-22T01:58:11.287Z,7.20
2023-03-22T02:01:21.521Z,7.07
2023-03-22T02:04:42.702Z,7.82
2023-03-22T02:10:25.299Z,7.60
2023-03-22T02:13:31.155Z,8.00
2023-03-22T02:17:24.948Z,7.63
2023-03-22T02:20:33.381Z,8.45
2023-03-22T02:23:56.123Z,7.70
2023-03-22T02:26:51.699Z,7.50
2023-03-22T02:29:40.496Z,7.85
2023-03-22T02:32:38.346Z,8.27
2023-03-22T02:35:44.763Z,8.20
2023-03-22T02:38:46.218Z,8.65
2023-03-22T02:41:42.937Z,9.45
2023-03-22T02:45:00.581Z,9.93
2023-03-22T02:47:44.600Z,9.30
2023-03-22T02:50:32.186Z,9.23
2023-03-22T02:53:19.043Z,8.55
2023-03-22T02:56:38.282Z,8.73
2023-03-22T02:59:13.330Z,9.00
2023-03-22T03:01:57.093Z,8.60
2023-03-22T03:04:58.068Z,8.88
2023-03-22T03:07:35.336Z,8.75
2023-03-22T03:10:59.392Z,8.77
2023-03-22T03:13:53.288Z,8.80
2023-03-22T03:16:51.588Z,8.38
2023-03-22T03:19:28.672Z,9.50
2023-03-22T03:22:37.646Z,9.00
2023-03-22T03:25:46.578Z,8.88
2023-03-22T03:28:50.028Z,8.60
2023-03-22T03:31:51.397Z,9.05
2023-03-22T03:34:35.724Z,8.77
2023-03-22T03:37:29.405Z,8.18
2023-03-22T03:40:42.857Z,8.45
2023-03-22T03:43:21.682Z,8.32
2023-03-22T03:46:19.583Z,8.25
2023-03-22T03:49:00.581Z,8.50
2023-03-22T03:51:41.007Z,8.38
2023-03-22T03:55:10.028Z,7.93
2023-03-22T03:57:43.265Z,7.88
2023-03-22T04:00:55.200Z,8.00
2023-03-22T04:04:14.732Z,7.73
2023-03-22T04:06:57.349Z,8.13
2023-03-22T04:09:59.217Z,8.07
2023-03-22T04:15:34.423Z,7.32
2023-03-22T04:18:15.403Z,7.85
2023-03-22T04:20:58.464Z,7.47
2023-03-22T04:23:54.952Z,7.50
2023-03-22T04:26:34.610Z,7.30
2023-03-22T04:29:18.126Z,7.40
2023-03-22T04:32:13.220Z,7.82
2023-03-22T04:35:07.911Z,7.38
2023-03-22T04:38:05.932Z,7.07
2023-03-22T04:41:03.619Z,7.18
2023-03-22T04:43:54.265Z,6.72
2023-03-22T04:46:46.295Z,6.70
2023-03-22T04:49:31.891Z,6.63
2023-03-22T04:52:16.340Z,6.50
2023-03-22T04:55:07.405Z,6.43
2023-03-22T04:57:38.998Z,6.80
2023-03-22T05:00:19.534Z,6.65
2023-03-22T05:03:02.080Z,6.82
2023-03-22T05:06:08.093Z,6.20
2023-03-22T05:08:59.285Z,6.10
2023-03-22T05:12:05.744Z,6.20
2023-03-22T05:15:10.713Z,6.32
2023-03-22T05:18:01.103Z,6.18
2023-03-22T05:20:45.223Z,6.50
2023-03-22T05:23:31.768Z,6.32
2023-03-22T05:26:40.504Z,7.35
2023-03-22T05:29:46.446Z,6.70
2023-03-22T05:32:53.342Z,7.90
2023-03-22T05:36:00.671Z,6.40
2023-03-22T05:38:48.938Z,6.40
2023-03-22T05:41:26.815Z,6.65
2023-03-22T05:44:33.370Z,6.47
2023-03-22T05:47:21.416Z,6.38
2023-03-22T05:50:43.769Z,6.50
2023-03-22T05:53:17.964Z,6.15
2023-03-22T05:56:10.651Z,6.40
2023-03-22T05:58:47.999Z,6.32
2023-03-22T06:01:32.493Z,6.45
2023-03-22T06:04:32.487Z,6.35
2023-03-22T06:07:09.502Z,6.00
2023-03-22T06:10:00.573Z,5.82
2023-03-22T06:12:38.782Z,5.80
2023-03-22T06:15:30.822Z,5.95
2023-03-22T06:18:17.782Z,5.55
2023-03-22T06:21:02.158Z,5.80
2023-03-22T06:23:38.266Z,5.53
2023-03-22T06:26:14.255Z,6.30
2023-03-22T06:28:52.593Z,5.38
2023-03-22T06:31:36.043Z,5.82
2023-03-22T06:34:22.620Z,6.00
2023-03-22T06:37:06.071Z,5.88
2023-03-22T06:39:52.084Z,5.75
2023-03-22T06:42:35.819Z,5.97
2023-03-22T06:45:24.425Z,5.75
2023-03-22T06:48:27.306Z,5.57
2023-03-22T06:51:24.316Z,5.32
2023-03-22T06:54:02.925Z,5.38
2023-03-22T06:56:39.482Z,5.57
2023-03-22T06:59:16.075Z,5.47
2023-03-22T07:01:44.569Z,4.95
2023-03-22T07:04:12.675Z,5.63
2023-03-22T07:06:39.948Z,5.20
2023-03-22T07:09:46.668Z,4.57
2023-03-22T07:12:49.390Z,4.93
2023-03-22T07:20:59.085Z,5.03
2023-03-22T07:23:44.948Z,4.57
2023-03-22T07:26:40.393Z,4.75
2023-03-22T07:29:25.508Z,4.30
2023-03-22T07:32:09.760Z,4.40
2023-03-22T07:35:24.555Z,4.07
2023-03-22T07:38:07.866Z,4.50
2023-03-22T07:40:47.665Z,4.03
2023-03-22T07:43:58.394Z,3.58
2023-03-22T07:46:46.708Z,3.45
2023-03-22T07:49:39.505Z,3.45
2023-03-22T07:52:41.158Z,3.28
2023-03-22T07:55:56.587Z,3.17
2023-03-22T07:58:34.853Z,2.92
2023-03-22T08:01:18.552Z,2.40
2023-03-22T08:04:37.564Z,2.90
2023-03-22T08:07:30.854Z,2.92
2023-03-22T08:10:23.738Z,2.47
2023-03-22T08:13:17.543Z,3.03
2023-03-22T08:18:58.256Z,2.38
2023-03-22T08:21:42.880Z,2.72
2023-03-22T08:24:50.383Z,2.90
2023-03-22T08:27:39.717Z,2.38
2023-03-22T08:30:51.550Z,1.92
2023-03-22T08:33:48.808Z,2.25
2023-03-22T08:36:41.220Z,2.40
2023-03-22T08:39:37.787Z,2.42
2023-03-22T08:42:34.665Z,2.40
2023-03-22T08:48:19.307Z,2.30
2023-03-22T08:51:40.544Z,2.35
2023-03-22T08:54:45.016Z,2.50
2023-03-22T08:58:11.245Z,2.22
2023-03-22T09:01:28.124Z,2.25
2023-03-22T09:04:23.636Z,1.65
2023-03-22T09:06:59.980Z,1.80
2023-03-22T09:09:56.173Z,1.85
2023-03-22T09:12:44.615Z,1.50
2023-03-22T09:15:41.015Z,1.60
2023-03-22T09:18:42.324Z,1.92
2023-03-22T09:21:21.693Z,1.35
2023-03-22T09:27:18.159Z,1.63
2023-03-22T09:29:51.058Z,1.77
2023-03-22T09:32:19.534Z,1.20
2023-03-22T09:35:04.633Z,1.63
2023-03-22T09:37:53.944Z,1.20
2023-03-22T09:41:02.620Z,1.50
2023-03-22T09:44:11.464Z,1.70
2023-03-22T09:47:01.170Z,1.55
2023-03-22T09:49:53.742Z,1.30
2023-03-22T09:52:28.603Z,1.35
2023-03-22T09:55:01.595Z,1.50
2023-03-22T09:58:15.976Z,1.50
2023-03-22T10:01:12.203Z,1.20
2023-03-22T10:04:02.770Z,1.52
2023-03-22T10:07:22.137Z,1.25
2023-03-22T10:10:21.088Z,1.40
2023-03-22T10:13:05.784Z,1.10
2023-03-22T10:16:27.693Z,1.25
2023-03-22T10:19:24.323Z,1.17
2023-03-22T10:22:09.588Z,1.23
2023-03-22T10:24:47.776Z,1.10
2023-03-22T10:27:25.635Z,1.38
2023-03-22T10:30:40.911Z,1.17
2023-03-22T10:33:29.529Z,1.20
2023-03-22T10:36:15.500Z,1.73
2023-03-22T10:39:00.819Z,1.20
2023-03-22T10:41:38.938Z,1.45
2023-03-22T10:44:23.219Z,1.15
2023-03-22T10:47:08.439Z,1.15
2023-03-22T10:50:06.430Z,1.10
2023-03-22T10:53:07.682Z,1.07
2023-03-22T10:55:52.036Z,1.10
2023-03-22T10:58:35.833Z,1.38
2023-03-22T11:01:13.406Z,1.15
2023-03-22T11:04:14.940Z,1.20
2023-03-22T11:07:08.971Z,1.58
2023-03-22T11:09:57.044Z,1.50
2023-03-22T11:12:29.356Z,1.50
2023-03-22T11:15:10.388Z,1.30
2023-03-22T11:17:45.641Z,1.42
2023-03-22T11:20:32.841Z,1.30
2023-03-22T11:23:18.802Z,1.20
2023-03-22T11:26:03.692Z,1.40
2023-03-22T11:29:04.028Z,1.30
2023-03-22T11:31:56.138Z,1.33
2023-03-22T11:34:32.489Z,1.30
2023-03-22T11:37:03.522Z,1.08
2023-03-22T11:39:35.534Z,1.55
2023-03-22T11:42:21.208Z,1.98
2023-03-22T11:45:00.684Z,1.20
2023-03-22T11:47:38.065Z,1.45
2023-03-22T11:50:30.577Z,1.20
2023-03-22T11:53:23.840Z,1.20
2023-03-22T11:55:58.646Z,1.40
2023-03-22T11:58:36.300Z,1.38
2023-03-22T12:02:05.177Z,1.17
2023-03-22T12:05:05.993Z,1.20
2023-03-22T12:07:59.267Z,1.25
2023-03-22T12:10:44.948Z,1.40
2023-03-22T12:13:43.965Z,1.25
2023-03-22T12:16:26.594Z,1.63
2023-03-22T12:19:32.932Z,1.25
2023-03-22T12:22:30.788Z,1.45
2023-03-22T12:25:15.861Z,1.10
2023-03-22T12:28:10.632Z,1.23
2023-03-22T12:33:56.925Z,1.33
2023-03-22T12:40:15.683Z,1.25
2023-03-22T12:43:23.872Z,0.95
2023-03-22T12:45:59.520Z,0.90
2023-03-22T12:48:48.509Z,1.20
2023-03-22T12:51:24.614Z,0.85
2023-03-22T12:54:01.420Z,1.20
2023-03-22T12:56:36.631Z,1.15
2023-03-22T12:59:08.810Z,1.15
2023-03-22T13:01:54.803Z,0.80
2023-03-22T13:04:57.914Z,1.02
2023-03-22T13:07:57.134Z,1.02
2023-03-22T13:10:34.112Z,1.15
2023-03-22T13:13:16.504Z,1.35
2023-03-22T13:16:16.253Z,1.10
2023-03-22T13:18:59.546Z,0.85
2023-03-22T13:21:46.135Z,0.90
2023-03-22T13:24:17.101Z,1.10
2023-03-22T13:26:56.756Z,1.10
2023-03-22T13:29:42.185Z,1.02
2023-03-22T13:32:34.027Z,1.02
2023-03-22T13:35:16.534Z,1.08
2023-03-22T13:37:54.223Z,0.90
2023-03-22T13:40:53.553Z,1.17
2023-03-22T13:43:29.708Z,0.80
2023-03-22T13:46:25.792Z,1.25
2023-03-22T13:49:04.547Z,1.15
2023-03-22T13:51:42.699Z,0.90
2023-03-22T13:54:27.172Z,0.90
2023-03-22T13:57:02.712Z,0.98
2023-03-22T14:00:28.035Z,1.13
2023-03-22T14:03:16.331Z,1.02
2023-03-22T14:05:51.300Z,1.15
2023-03-22T14:08:26.397Z,1.08
2023-03-22T14:11:23.261Z,1.33
2023-03-22T14:14:04.450Z,1.00
2023-03-22T14:17:16.928Z,1.05
2023-03-22T14:19:45.723Z,0.90
